Time;durP1;ratioP1;P1;durP2;ratioP2;P2;SDS_P1;SDS_P2;PMS_P1;PMS_P2;Temp;Humidity;BMP_temperature;BMP_pressure;BME280_temperature;BME280_humidity;BME280_pressure;Samples;Min_cycle;Max_cycle;Signal;HPM_P1;HPM_P2
2022/07/28 00:01:08;;;;;;;4.40;1.45;;;12.40;81.50;;;;;;5109031;28;20081;-46
2022/07/28 00:03:35;;;;;;;3.13;1.40;;;12.50;81.50;;;;;;5108905;28;20020;-44
2022/07/28 00:06:02;;;;;;;2.63;1.60;;;12.50;81.60;;;;;;5110018;28;20924;-44
2022/07/28 00:08:31;;;;;;;4.68;1.20;;;12.50;81.60;;;;;;5094452;28;20448;-45
2022/07/28 00:10:57;;;;;;;4.47;1.30;;;12.60;81.60;;;;;;5112531;28;20024;-46
2022/07/28 00:13:24;;;;;;;4.85;1.50;;;12.60;81.60;;;;;;5112537;28;20043;-45
2022/07/28 00:15:51;;;;;;;2.67;1.17;;;12.70;81.60;;;;;;5094408;28;20036;-46
2022/07/28 00:18:17;;;;;;;6.50;2.22;;;12.70;81.60;;;;;;5077582;28;20059;-45
2022/07/28 00:20:46;;;;;;;4.15;1.30;;;12.80;81.70;;;;;;5112208;28;20031;-45
2022/07/28 00:23:13;;;;;;;4.35;1.30;;;12.80;81.60;;;;;;5111970;28;20035;-45
2022/07/28 00:25:42;;;;;;;5.03;1.83;;;12.90;81.50;;;;;;5112059;28;20145;-46
2022/07/28 00:28:09;;;;;;;3.85;1.25;;;12.90;81.80;;;;;;5111702;28;20069;-47
2022/07/28 00:30:37;;;;;;;3.58;1.65;;;12.90;81.50;;;;;;5111721;28;20036;-44
2022/07/28 00:33:03;;;;;;;3.53;1.27;;;12.90;81.30;;;;;;5093837;28;20023;-45
2022/07/28 00:35:30;;;;;;;3.70;1.42;;;13.00;81.20;;;;;;5111518;28;20455;-45
2022/07/28 00:37:58;;;;;;;7.13;1.98;;;13.00;81.30;;;;;;5093518;28;20035;-46
2022/07/28 00:41:09;;;;;;;3.35;1.42;;;13.00;81.50;;;;;;5111244;28;20081;-45
2022/07/28 00:43:11;;;;;;;3.35;1.20;;;13.00;81.60;;;;;;5090565;28;20048;-45
2022/07/28 00:45:38;;;;;;;3.42;1.70;;;13.10;81.50;;;;;;5090361;28;20024;-46
2022/07/28 00:48:04;;;;;;;3.03;1.42;;;13.10;81.50;;;;;;5091597;28;20024;-45
2022/07/28 00:50:30;;;;;;;5.35;1.58;;;13.10;81.60;;;;;;5090737;28;20044;-45
2022/07/28 00:53:00;;;;;;;2.75;1.35;;;13.10;81.70;;;;;;5091583;28;20027;-46
2022/07/28 00:55:27;;;;;;;3.63;2.03;;;13.20;81.90;;;;;;5091555;28;20365;-45
2022/07/28 00:57:54;;;;;;;4.18;1.20;;;13.20;82.00;;;;;;5091520;28;20611;-45
2022/07/28 01:00:20;;;;;;;4.72;1.80;;;13.20;82.00;;;;;;5091283;28;20025;-45
2022/07/28 01:02:48;;;;;;;2.35;1.38;;;13.10;81.80;;;;;;5091220;28;20352;-45
2022/07/28 01:05:17;;;;;;;4.97;1.88;;;13.10;81.80;;;;;;5091352;28;20017;-46
2022/07/28 01:08:08;;;;;;;3.25;1.70;;;13.00;81.90;;;;;;5073839;28;20506;-47
2022/07/28 01:11:03;;;;;;;4.97;2.03;;;12.90;82.10;;;;;;5090827;28;20417;-47
2022/07/28 01:14:09;;;;;;;3.55;1.70;;;12.90;82.20;;;;;;5091060;28;20465;-45
2022/07/28 01:16:47;;;;;;;3.50;1.67;;;12.70;82.40;;;;;;5088619;28;20485;-45
2022/07/28 01:19:29;;;;;;;3.65;1.42;;;12.70;82.80;;;;;;5089942;28;20029;-45
2022/07/28 01:21:59;;;;;;;4.15;1.90;;;12.60;82.90;;;;;;5090922;28;20557;-45
2022/07/28 01:24:59;;;;;;;3.83;1.40;;;12.60;83.10;;;;;;5090894;28;20089;-45
2022/07/28 01:27:27;;;;;;;;;;;12.50;83.40;;;;;;5089792;28;20016;-45
2022/07/28 01:30:08;;;;;;;4.78;1.77;;;12.40;83.60;;;;;;5087846;28;19926;-47
2022/07/28 01:32:41;;;;;;;2.85;1.70;;;12.50;83.90;;;;;;5089252;28;20306;-45
2022/07/28 01:35:19;;;;;;;6.80;1.73;;;12.50;84.20;;;;;;5089206;28;20044;-44
2022/07/28 01:37:48;;;;;;;4.55;1.95;;;12.50;84.30;;;;;;5089279;28;20169;-45
2022/07/28 01:40:18;;;;;;;4.13;1.83;;;12.50;84.30;;;;;;5089191;28;20287;-44
2022/07/28 01:42:48;;;;;;;3.40;1.60;;;12.60;84.20;;;;;;5087748;28;20118;-45
2022/07/28 01:45:14;;;;;;;;;;;12.60;84.30;;;;;;5088217;28;20153;-46
2022/07/28 01:47:45;;;;;;;4.20;1.67;;;12.60;84.30;;;;;;5089125;28;19915;-45
2022/07/28 01:50:14;;;;;;;4.07;1.45;;;12.60;84.30;;;;;;5089037;28;20119;-47
2022/07/28 01:52:42;;;;;;;5.78;2.00;;;12.70;84.30;;;;;;5090086;28;20020;-45
2022/07/28 01:55:09;;;;;;;6.82;1.92;;;12.70;84.20;;;;;;5090493;28;20024;-45
2022/07/28 01:57:36;;;;;;;7.20;1.98;;;12.70;83.90;;;;;;5090285;28;20160;-47
2022/07/28 02:00:06;;;;;;;3.67;1.40;;;12.70;84.20;;;;;;5089192;28;20032;-45
2022/07/28 02:02:33;;;;;;;5.28;2.22;;;12.80;84.20;;;;;;5090203;28;20039;-45
2022/07/28 02:04:59;;;;;;;3.97;1.38;;;12.80;84.00;;;;;;5089342;28;20046;-45
2022/07/28 02:07:30;;;;;;;3.92;1.60;;;12.80;84.20;;;;;;5089344;28;20028;-45
2022/07/28 02:09:57;;;;;;;4.18;1.50;;;12.90;84.00;;;;;;5089971;28;20020;-45
2022/07/28 02:12:25;;;;;;;4.00;2.25;;;12.90;84.00;;;;;;5088903;28;20055;-45
2022/07/28 02:14:52;;;;;;;4.20;1.90;;;12.90;84.00;;;;;;5090023;28;20627;-45
2022/07/28 02:17:23;;;;;;;3.70;2.00;;;12.90;83.90;;;;;;5090000;28;20028;-45
2022/07/28 02:19:50;;;;;;;3.33;1.65;;;12.90;83.80;;;;;;5089737;28;20449;-46
2022/07/28 02:22:17;;;;;;;4.95;1.92;;;13.00;83.60;;;;;;5088454;28;20127;-45
2022/07/28 02:24:44;;;;;;;8.15;2.08;;;12.90;83.60;;;;;;5088986;28;20047;-45
2022/07/28 02:27:22;;;;;;;3.90;1.70;;;12.90;83.30;;;;;;5089769;28;20020;-44
2022/07/28 02:29:52;;;;;;;5.65;2.63;;;12.90;83.30;;;;;;5089194;28;20020;-45
2022/07/28 02:32:17;;;;;;;8.68;2.58;;;12.90;83.30;;;;;;5089576;28;20048;-45
2022/07/28 02:34:46;;;;;;;2.83;1.55;;;13.00;83.30;;;;;;5089794;28;20480;-47
2022/07/28 02:37:14;;;;;;;5.53;2.20;;;13.00;83.40;;;;;;5089688;28;20081;-45
2022/07/28 02:39:51;;;;;;;3.80;1.60;;;12.90;83.20;;;;;;5088992;28;20037;-45
2022/07/28 02:42:21;;;;;;;3.35;1.45;;;13.00;83.00;;;;;;5104570;28;20065;-45
2022/07/28 02:44:56;;;;;;;4.50;2.08;;;13.00;83.10;;;;;;5109591;28;20559;-45
2022/07/28 02:47:25;;;;;;;4.00;1.80;;;13.10;83.20;;;;;;5109183;28;20048;-44
2022/07/28 02:49:52;;;;;;;4.53;1.50;;;13.10;83.10;;;;;;5109261;28;20058;-44
2022/07/28 02:52:22;;;;;;;4.80;1.80;;;13.10;83.00;;;;;;5109262;28;20023;-45
2022/07/28 02:54:49;;;;;;;;;;;13.10;83.00;;;;;;5109740;28;20595;-45
2022/07/28 02:57:17;;;;;;;3.85;1.77;;;13.10;83.10;;;;;;5109176;28;20020;-45
2022/07/28 02:59:43;;;;;;;4.13;2.03;;;13.10;83.10;;;;;;5092038;28;20066;-46
2022/07/28 03:02:11;;;;;;;3.60;1.60;;;13.10;82.90;;;;;;5109389;28;20074;-45
2022/07/28 03:05:01;;;;;;;3.97;1.67;;;13.10;83.10;;;;;;5075108;28;20534;-45
2022/07/28 03:07:29;;;;;;;3.80;2.00;;;13.20;83.30;;;;;;5091401;28;20031;-44
2022/07/28 03:09:57;;;;;;;4.75;2.00;;;13.20;83.20;;;;;;5109602;28;20542;-44
2022/07/28 03:12:23;;;;;;;3.92;1.50;;;13.20;83.30;;;;;;5108951;28;20043;-44
2022/07/28 03:14:49;;;;;;;6.05;1.90;;;13.10;83.40;;;;;;5091682;28;20444;-44
2022/07/28 03:17:16;;;;;;;7.13;3.10;;;13.20;83.40;;;;;;5091696;28;20058;-44
2022/07/28 03:19:41;;;;;;;3.58;1.70;;;13.10;83.30;;;;;;5109524;28;20115;-44
2022/07/28 03:22:07;;;;;;;5.30;2.60;;;13.10;83.10;;;;;;5109601;28;20114;-44
2022/07/28 03:24:36;;;;;;;3.35;1.70;;;13.10;83.40;;;;;;5109606;28;20028;-45
2022/07/28 03:27:11;;;;;;;7.30;2.35;;;13.10;83.20;;;;;;5091719;28;20051;-45
2022/07/28 03:29:38;;;;;;;4.72;2.25;;;13.20;83.30;;;;;;5091465;28;20027;-44
2022/07/28 03:32:08;;;;;;;6.20;2.10;;;13.10;83.20;;;;;;5109327;28;20172;-43
2022/07/28 03:34:34;;;;;;;5.75;2.10;;;13.20;83.10;;;;;;5109434;28;20027;-44
2022/07/28 03:37:10;;;;;;;4.20;1.63;;;13.20;83.00;;;;;;5109620;28;20034;-44
2022/07/28 03:39:48;;;;;;;3.40;1.70;;;13.20;83.00;;;;;;5091502;28;20047;-43
2022/07/28 03:42:17;;;;;;;2.45;1.55;;;13.20;83.20;;;;;;5112453;28;20035;-43
2022/07/28 03:44:49;;;;;;;7.63;2.42;;;13.30;83.20;;;;;;5113004;28;20020;-45
2022/07/28 03:47:19;;;;;;;4.05;1.98;;;13.30;83.20;;;;;;5113129;28;20440;-44
2022/07/28 03:49:45;;;;;;;4.35;2.05;;;13.30;83.10;;;;;;5113131;28;20031;-44
2022/07/28 03:52:11;;;;;;;4.40;2.25;;;13.30;83.00;;;;;;5095001;28;20031;-43
2022/07/28 03:54:36;;;;;;;5.40;2.30;;;13.30;82.90;;;;;;5094868;28;20133;-46
2022/07/28 03:57:05;;;;;;;3.15;1.90;;;13.20;83.00;;;;;;5113137;28;20051;-45
2022/07/28 03:59:31;;;;;;;5.32;2.03;;;13.20;82.90;;;;;;5113063;28;20388;-44
2022/07/28 04:01:56;;;;;;;3.70;2.47;;;13.20;82.80;;;;;;5112623;28;20028;-44
2022/07/28 04:04:22;;;;;;;3.10;1.92;;;13.20;83.10;;;;;;5112825;28;20020;-44
2022/07/28 04:06:48;;;;;;;4.60;2.38;;;13.20;83.00;;;;;;5112845;28;20414;-44
2022/07/28 04:09:14;;;;;;;5.90;2.20;;;13.20;83.00;;;;;;5112938;28;20024;-45
2022/07/28 04:11:41;;;;;;;3.38;2.17;;;13.30;83.20;;;;;;5094862;28;20019;-44
2022/07/28 04:14:06;;;;;;;4.03;2.10;;;13.30;83.40;;;;;;5112660;28;20032;-45
2022/07/28 04:16:33;;;;;;;6.18;2.75;;;13.40;83.40;;;;;;5113105;28;20084;-44
2022/07/28 04:19:01;;;;;;;4.50;2.53;;;13.40;83.50;;;;;;5112533;28;20036;-44
2022/07/28 04:21:26;;;;;;;3.83;1.67;;;13.40;83.70;;;;;;5112487;28;20020;-45
2022/07/28 04:23:52;;;;;;;5.45;2.30;;;13.40;83.60;;;;;;5094400;28;20123;-43
2022/07/28 04:26:18;;;;;;;3.60;2.40;;;13.40;83.80;;;;;;5112354;28;20059;-45
2022/07/28 04:28:44;;;;;;;5.07;3.28;;;13.50;83.80;;;;;;5112646;28;20102;-44
2022/07/28 04:31:10;;;;;;;5.35;2.35;;;13.50;83.60;;;;;;5112238;28;20034;-45
2022/07/28 04:33:36;;;;;;;5.93;2.53;;;13.60;83.70;;;;;;5094459;28;20023;-45
2022/07/28 04:36:02;;;;;;;3.85;1.88;;;13.60;83.80;;;;;;5112532;28;20031;-45
2022/07/28 04:38:28;;;;;;;4.70;2.25;;;13.60;83.80;;;;;;5112301;28;20023;-45
2022/07/28 04:40:54;;;;;;;3.90;2.30;;;13.70;83.60;;;;;;5111945;28;20105;-45
2022/07/28 04:43:20;;;;;;;5.45;2.10;;;13.70;83.50;;;;;;5112184;28;20016;-45
2022/07/28 04:45:49;;;;;;;6.32;2.28;;;13.80;83.60;;;;;;5112162;28;20020;-47
2022/07/28 04:48:15;;;;;;;3.40;2.25;;;13.90;83.60;;;;;;5112183;28;20322;-45
2022/07/28 04:50:43;;;;;;;3.53;1.92;;;13.90;83.30;;;;;;5112028;28;20132;-45
2022/07/28 04:53:09;;;;;;;5.00;2.35;;;14.00;83.30;;;;;;5093557;28;20493;-48
2022/07/28 04:55:38;;;;;;;4.35;2.15;;;14.00;83.10;;;;;;5111963;28;20040;-45
2022/07/28 04:58:06;;;;;;;6.10;2.33;;;14.00;83.00;;;;;;5094088;28;20031;-45
2022/07/28 05:00:32;;;;;;;5.70;2.15;;;14.10;83.10;;;;;;5112373;28;20023;-45
2022/07/28 05:02:57;;;;;;;5.40;2.78;;;14.20;83.10;;;;;;5111652;28;20425;-45
2022/07/28 05:05:24;;;;;;;4.68;2.25;;;14.20;83.10;;;;;;5111711;28;20020;-44
2022/07/28 05:07:50;;;;;;;7.47;2.45;;;14.30;83.00;;;;;;5077093;28;20022;-44
2022/07/28 05:10:18;;;;;;;7.65;2.88;;;14.30;82.60;;;;;;5111706;28;20329;-45
2022/07/28 05:12:46;;;;;;;3.97;1.83;;;14.40;82.80;;;;;;5110768;28;20023;-46
2022/07/28 05:15:11;;;;;;;4.45;2.20;;;14.40;82.80;;;;;;5110976;28;20340;-45
2022/07/28 05:17:37;;;;;;;5.47;2.47;;;14.40;82.80;;;;;;5111353;28;20031;-47
2022/07/28 05:20:04;;;;;;;4.07;2.00;;;14.50;82.70;;;;;;5111413;28;20034;-44
2022/07/28 05:22:45;;;;;;;5.43;2.45;;;14.60;82.40;;;;;;5111352;28;20035;-44
2022/07/28 05:25:18;;;;;;;4.03;2.22;;;14.70;82.30;;;;;;5111171;28;20023;-45
2022/07/28 05:27:45;;;;;;;4.13;2.35;;;14.70;82.20;;;;;;5093186;28;20034;-46
2022/07/28 05:30:11;;;;;;;5.13;2.00;;;14.80;82.20;;;;;;5111511;28;20422;-44
2022/07/28 05:32:37;;;;;;;4.50;1.77;;;14.90;82.00;;;;;;5111273;28;20123;-46
2022/07/28 05:35:04;;;;;;;2.38;1.23;;;14.90;81.90;;;;;;5093261;28;20103;-44
2022/07/28 05:37:34;;;;;;;4.13;1.92;;;14.90;81.70;;;;;;5093013;28;20035;-44
2022/07/28 05:40:02;;;;;;;5.60;2.08;;;15.10;81.60;;;;;;5111085;28;20028;-44
2022/07/28 05:42:34;;;;;;;4.93;1.98;;;15.20;81.10;;;;;;5092588;28;20101;-45
2022/07/28 05:45:07;;;;;;;3.50;1.92;;;15.30;81.20;;;;;;5111214;28;20024;-45
2022/07/28 05:47:40;;;;;;;3.53;1.98;;;15.40;80.80;;;;;;5092699;28;20069;-44
2022/07/28 05:50:06;;;;;;;2.97;1.50;;;15.50;80.00;;;;;;5110663;28;20023;-45
2022/07/28 05:52:31;;;;;;;6.03;1.58;;;15.60;79.60;;;;;;5110886;28;20024;-45
2022/07/28 05:54:57;;;;;;;4.30;1.40;;;15.60;79.30;;;;;;5111053;28;20023;-47
2022/07/28 05:57:23;;;;;;;4.50;1.67;;;15.70;78.90;;;;;;5110883;28;20027;-45
2022/07/28 05:59:51;;;;;;;2.83;0.82;;;15.80;78.80;;;;;;5092485;28;20067;-44
2022/07/28 06:02:17;;;;;;;2.78;1.17;;;15.90;78.90;;;;;;5110089;28;20043;-45
2022/07/28 06:04:42;;;;;;;3.00;1.00;;;15.90;78.20;;;;;;5091569;28;20022;-45
2022/07/28 06:07:08;;;;;;;2.05;1.00;;;16.00;78.30;;;;;;5109905;28;20050;-45
2022/07/28 06:09:34;;;;;;;5.05;1.00;;;16.10;77.90;;;;;;5092140;28;20038;-45
2022/07/28 06:11:59;;;;;;;2.85;1.02;;;16.10;77.10;;;;;;5109829;28;20102;-45
2022/07/28 06:14:25;;;;;;;2.05;0.98;;;16.20;76.50;;;;;;5092137;28;20074;-44
2022/07/28 06:16:50;;;;;;;3.70;0.77;;;16.30;76.80;;;;;;5109820;28;20506;-46
2022/07/28 06:19:17;;;;;;;2.97;0.90;;;16.40;74.80;;;;;;5109634;28;20071;-46
2022/07/28 06:21:42;;;;;;;3.78;0.90;;;16.50;74.00;;;;;;5109563;28;20459;-47
2022/07/28 06:24:08;;;;;;;0.77;0.30;;;16.60;73.90;;;;;;5109650;28;20023;-46
2022/07/28 06:26:36;;;;;;;2.25;0.93;;;16.70;72.10;;;;;;5109526;28;20042;-45
2022/07/28 06:29:03;;;;;;;1.67;0.70;;;16.80;71.00;;;;;;5109954;28;20023;-44
2022/07/28 06:31:28;;;;;;;2.70;0.90;;;16.90;69.90;;;;;;5092149;28;20100;-45
2022/07/28 06:33:54;;;;;;;1.42;0.52;;;16.90;68.90;;;;;;5092402;28;20031;-46
2022/07/28 06:36:20;;;;;;;1.35;0.52;;;16.90;68.00;;;;;;5110072;28;20047;-46
2022/07/28 06:38:48;;;;;;;4.25;0.68;;;16.90;67.20;;;;;;5091936;28;20027;-44
2022/07/28 06:41:14;;;;;;;1.40;0.60;;;17.00;66.50;;;;;;5088562;28;20473;-45
2022/07/28 06:43:39;;;;;;;1.98;0.77;;;17.10;67.20;;;;;;5089359;28;20032;-47
2022/07/28 06:46:06;;;;;;;1.65;0.70;;;17.10;65.60;;;;;;5089623;28;20435;-47
2022/07/28 06:48:32;;;;;;;3.03;0.57;;;17.20;66.20;;;;;;5089884;28;20456;-46
2022/07/28 06:50:59;;;;;;;7.22;0.63;;;17.40;65.50;;;;;;5089221;28;20065;-48
2022/07/28 06:53:25;;;;;;;1.48;0.60;;;17.50;66.20;;;;;;5089475;28;20036;-46
2022/07/28 06:55:51;;;;;;;2.35;0.57;;;17.50;65.20;;;;;;5088138;28;20426;-46
2022/07/28 06:58:17;;;;;;;2.13;0.60;;;17.70;64.50;;;;;;5089509;28;20020;-47
2022/07/28 07:00:42;;;;;;;2.08;0.93;;;17.90;62.10;;;;;;5089608;28;20104;-45
2022/07/28 07:03:08;;;;;;;0.90;0.30;;;18.10;63.80;;;;;;5089130;28;20027;-45
2022/07/28 07:05:34;;;;;;;2.03;0.40;;;18.30;61.50;;;;;;5089557;28;20028;-49
2022/07/28 07:07:59;;;;;;;4.28;0.60;;;18.30;59.90;;;;;;5088292;28;20030;-46
2022/07/28 07:10:25;;;;;;;1.30;0.40;;;18.30;60.00;;;;;;5089499;28;20422;-48
2022/07/28 07:12:53;;;;;;;2.08;0.60;;;18.20;59.40;;;;;;5089309;28;20045;-45
2022/07/28 07:15:19;;;;;;;1.58;0.70;;;18.20;59.80;;;;;;5091234;28;20028;-45
2022/07/28 07:17:44;;;;;;;4.85;0.68;;;18.00;60.50;;;;;;5092158;28;20097;-46
2022/07/28 07:20:12;;;;;;;3.35;1.00;;;17.90;59.50;;;;;;5093459;28;20031;-46
2022/07/28 07:22:45;;;;;;;1.33;0.50;;;17.70;59.70;;;;;;5092600;28;20020;-45
2022/07/28 07:25:12;;;;;;;1.95;0.55;;;17.70;59.50;;;;;;5092447;28;20016;-49
2022/07/28 07:27:40;;;;;;;4.70;0.60;;;17.80;60.10;;;;;;5093279;28;20055;-46
2022/07/28 07:30:07;;;;;;;1.33;0.45;;;17.90;60.10;;;;;;5093337;28;20035;-45
2022/07/28 07:32:33;;;;;;;0.75;0.40;;;17.90;61.90;;;;;;5092198;28;20495;-47
2022/07/28 07:34:59;;;;;;;3.72;0.80;;;18.10;62.80;;;;;;5093016;28;20028;-46
2022/07/28 07:37:24;;;;;;;1.73;0.55;;;18.30;62.40;;;;;;5092995;28;20032;-46
2022/07/28 07:39:50;;;;;;;3.13;0.73;;;18.40;58.90;;;;;;5093154;28;20028;-45
2022/07/28 07:42:16;;;;;;;1.90;0.55;;;18.80;59.80;;;;;;5091760;28;20472;-46
2022/07/28 07:44:42;;;;;;;6.50;0.63;;;19.30;58.50;;;;;;5093174;28;20465;-48
2022/07/28 07:47:09;;;;;;;4.75;0.50;;;19.80;56.40;;;;;;5093122;28;20037;-47
2022/07/28 07:49:40;;;;;;;3.20;0.90;;;20.50;54.00;;;;;;5092874;28;20103;-46
2022/07/28 07:52:05;;;;;;;2.70;0.82;;;20.90;52.70;;;;;;5092962;28;20097;-46
2022/07/28 07:54:33;;;;;;;4.75;0.90;;;21.50;51.30;;;;;;5074935;28;20023;-51
2022/07/28 07:56:59;;;;;;;1.90;0.60;;;21.90;49.50;;;;;;5092736;28;20036;-46
2022/07/28 07:59:24;;;;;;;3.75;1.00;;;22.00;49.80;;;;;;5091726;28;20041;-49
2022/07/28 08:01:53;;;;;;;2.30;0.55;;;22.60;50.20;;;;;;5092490;28;20028;-49
2022/07/28 08:04:22;;;;;;;2.00;0.68;;;23.20;49.30;;;;;;5092522;28;20016;-48
2022/07/28 08:06:52;;;;;;;2.92;0.70;;;23.20;46.50;;;;;;5092226;28;20028;-47
2022/07/28 08:09:17;;;;;;;;;;;23.50;47.10;;;;;;5093002;28;20107;-48
2022/07/28 08:11:43;;;;;;;1.80;0.52;;;24.00;46.80;;;;;;5092581;28;19999;-49
2022/07/28 08:14:09;;;;;;;3.80;0.90;;;24.40;46.20;;;;;;5091304;28;20047;-48
2022/07/28 08:16:35;;;;;;;1.95;0.80;;;24.00;47.10;;;;;;5092362;28;20028;-47
2022/07/28 08:19:01;;;;;;;2.55;0.60;;;23.60;49.60;;;;;;5092534;28;20032;-49
2022/07/28 08:21:27;;;;;;;4.45;0.60;;;23.80;49.60;;;;;;5092188;28;20430;-50
2022/07/28 08:23:57;;;;;;;2.30;0.55;;;24.00;48.40;;;;;;5090947;28;20020;-50
2022/07/28 08:26:27;;;;;;;3.42;0.77;;;23.90;48.40;;;;;;5090967;28;20023;-51
2022/07/28 08:28:55;;;;;;;3.65;0.75;;;23.80;50.40;;;;;;5092163;28;20031;-48
2022/07/28 08:31:23;;;;;;;2.63;0.60;;;23.60;50.40;;;;;;5092188;28;20349;-47
2022/07/28 08:33:49;;;;;;;5.82;0.70;;;23.80;49.20;;;;;;5092083;28;20024;-49
2022/07/28 08:36:15;;;;;;;3.42;0.93;;;23.00;50.60;;;;;;5091850;28;20446;-47
2022/07/28 08:38:41;;;;;;;1.73;0.60;;;21.90;53.10;;;;;;5090902;28;20032;-49
2022/07/28 08:41:18;;;;;;;2.80;0.57;;;21.60;54.00;;;;;;5090899;28;20117;-49
2022/07/28 08:43:46;;;;;;;3.55;0.77;;;21.00;55.40;;;;;;5091647;28;20030;-49
2022/07/28 08:46:12;;;;;;;2.97;0.93;;;20.40;56.00;;;;;;5091740;28;20024;-46
2022/07/28 08:48:38;;;;;;;5.53;1.02;;;20.10;58.40;;;;;;5091762;28;20115;-47
2022/07/28 08:51:10;;;;;;;3.72;1.05;;;19.80;59.10;;;;;;5090764;28;20127;-47
2022/07/28 08:53:38;;;;;;;2.63;0.52;;;19.40;58.10;;;;;;5090952;28;20024;-47
2022/07/28 08:56:11;;;;;;;7.30;1.75;;;19.30;60.50;;;;;;5091576;28;20024;-49
2022/07/28 08:58:39;;;;;;;3.17;1.13;;;19.20;60.20;;;;;;5091594;28;20474;-48
2022/07/28 09:01:07;;;;;;;3.50;0.70;;;19.10;59.00;;;;;;5091581;28;20441;-48
2022/07/28 09:03:33;;;;;;;2.13;0.52;;;19.00;60.50;;;;;;5091472;28;20127;-47
2022/07/28 09:05:59;;;;;;;4.28;0.70;;;18.90;60.50;;;;;;5090244;28;20039;-47
2022/07/28 09:08:25;;;;;;;2.38;0.60;;;18.90;59.60;;;;;;5091149;28;20096;-49
2022/07/28 09:10:51;;;;;;;3.88;0.70;;;18.90;61.10;;;;;;5091465;28;20036;-46
2022/07/28 09:13:17;;;;;;;8.38;1.05;;;18.80;59.90;;;;;;5091173;28;20078;-49
2022/07/28 09:15:45;;;;;;;2.03;0.57;;;18.70;60.90;;;;;;5091403;28;20023;-47
2022/07/28 09:18:12;;;;;;;1.65;0.47;;;18.70;60.60;;;;;;5090317;28;20051;-48
2022/07/28 09:20:39;;;;;;;1.20;0.50;;;18.70;61.00;;;;;;5090999;28;20066;-46
2022/07/28 09:23:06;;;;;;;3.08;0.75;;;18.80;60.40;;;;;;5090967;28;20112;-49
2022/07/28 09:25:34;;;;;;;7.15;1.20;;;18.70;61.10;;;;;;5089804;28;20091;-47
2022/07/28 09:28:10;;;;;;;5.50;0.90;;;18.70;61.30;;;;;;5090967;28;20047;-46
2022/07/28 09:30:40;;;;;;;1.38;0.57;;;18.60;60.50;;;;;;5091076;28;20030;-48
2022/07/28 09:33:26;;;;;;;4.78;0.90;;;18.70;60.30;;;;;;5090088;28;20395;-46
2022/07/28 09:35:57;;;;;;;3.47;0.70;;;18.70;61.10;;;;;;5090710;28;20024;-48
2022/07/28 09:38:26;;;;;;;2.72;0.75;;;18.80;59.10;;;;;;5091130;28;20419;-46
2022/07/28 09:41:10;;;;;;;4.70;1.20;;;18.90;59.00;;;;;;5094024;28;20445;-48
2022/07/28 09:43:41;;;;;;;2.35;0.70;;;18.90;59.50;;;;;;5092334;28;20039;-50
2022/07/28 09:46:12;;;;;;;3.70;0.88;;;18.90;59.90;;;;;;5110078;28;20034;-48
2022/07/28 09:48:49;;;;;;;2.70;0.70;;;19.00;60.20;;;;;;5110457;28;20034;-46
2022/07/28 09:51:17;;;;;;;4.25;0.70;;;18.90;58.90;;;;;;5092044;28;20100;-48
2022/07/28 09:53:43;;;;;;;3.53;0.75;;;18.90;59.70;;;;;;5110062;28;20452;-50
2022/07/28 09:56:14;;;;;;;2.65;0.57;;;19.00;60.80;;;;;;5110155;28;20042;-47
2022/07/28 09:58:51;;;;;;;3.13;0.47;;;19.10;58.20;;;;;;5092761;28;20348;-47
2022/07/28 10:01:19;;;;;;;2.80;0.77;;;19.30;59.40;;;;;;5092841;28;20356;-48
2022/07/28 10:03:50;;;;;;;3.10;0.93;;;19.30;57.20;;;;;;5110583;28;20027;-47
2022/07/28 10:06:30;;;;;;;3.35;0.50;;;19.40;57.00;;;;;;5110614;28;20072;-47
2022/07/28 10:08:58;;;;;;;1.63;0.52;;;19.40;56.50;;;;;;5110576;28;20084;-47
2022/07/28 10:11:27;;;;;;;2.83;0.93;;;19.40;57.40;;;;;;5110372;28;20028;-47
2022/07/28 10:14:04;;;;;;;2.28;0.70;;;19.40;56.10;;;;;;5110411;28;20437;-47
2022/07/28 10:16:38;;;;;;;5.15;1.20;;;19.50;59.10;;;;;;5110385;28;20471;-48
2022/07/28 10:19:04;;;;;;;4.32;0.65;;;19.60;54.70;;;;;;5110469;28;20050;-48
2022/07/28 10:21:33;;;;;;;1.38;0.40;;;19.70;58.50;;;;;;5092107;28;20032;-49
2022/07/28 10:24:04;;;;;;;3.17;0.70;;;19.70;58.60;;;;;;5110057;28;20031;-48
2022/07/28 10:26:44;;;;;;;1.73;0.50;;;19.90;58.30;;;;;;5110321;28;20020;-48
2022/07/28 10:29:14;;;;;;;2.03;0.50;;;19.90;55.60;;;;;;5110202;28;20051;-46
2022/07/28 10:31:59;;;;;;;2.40;0.80;;;19.90;58.00;;;;;;5110108;28;20023;-50
2022/07/28 10:34:47;;;;;;;3.35;0.75;;;19.90;54.80;;;;;;5110239;28;20046;-50
2022/07/28 10:37:24;;;;;;;1.92;0.57;;;20.10;56.30;;;;;;5110243;28;20046;-48
2022/07/28 10:40:04;;;;;;;2.08;0.60;;;20.20;56.80;;;;;;5110068;28;20117;-48
2022/07/28 10:42:31;;;;;;;2.53;0.60;;;20.20;55.30;;;;;;5109591;28;20052;-45
2022/07/28 10:44:57;;;;;;;4.45;0.70;;;20.30;55.80;;;;;;5109817;28;20047;-48
2022/07/28 10:47:27;;;;;;;2.33;0.55;;;20.40;54.30;;;;;;5110022;28;20034;-48
2022/07/28 10:49:52;;;;;;;2.42;0.60;;;20.30;54.70;;;;;;5109435;28;20098;-47
2022/07/28 10:52:19;;;;;;;2.22;0.60;;;20.40;54.20;;;;;;5109592;28;20443;-47
2022/07/28 10:54:51;;;;;;;2.35;0.52;;;20.50;56.90;;;;;;5091693;28;20027;-50
2022/07/28 10:57:17;;;;;;;1.92;0.50;;;20.80;54.50;;;;;;5109736;28;20032;-48
2022/07/28 10:59:58;;;;;;;2.50;0.77;;;20.90;53.20;;;;;;5092010;28;20023;-50
2022/07/28 11:02:44;;;;;;;3.45;0.68;;;20.80;55.00;;;;;;5091679;28;20043;-48
2022/07/28 11:05:26;;;;;;;2.03;0.90;;;20.80;52.40;;;;;;5109661;28;20020;-50
2022/07/28 11:07:55;;;;;;;2.45;0.60;;;20.70;55.40;;;;;;5109799;28;20341;-49
2022/07/28 11:10:21;;;;;;;4.50;1.00;;;20.90;52.10;;;;;;5075268;28;20338;-50
2022/07/28 11:12:51;;;;;;;6.38;0.90;;;20.90;52.70;;;;;;5109715;28;20397;-47
2022/07/28 11:15:34;;;;;;;2.13;0.60;;;20.90;51.10;;;;;;5091699;28;20447;-48
2022/07/28 11:18:07;;;;;;;1.33;0.52;;;20.90;50.30;;;;;;5091787;28;20318;-51
2022/07/28 11:20:56;;;;;;;4.20;0.68;;;21.00;53.30;;;;;;5091533;28;20027;-47
2022/07/28 11:23:37;;;;;;;4.45;0.80;;;21.00;51.90;;;;;;5109380;28;20015;-48
2022/07/28 11:28:59;;;;;;;2.95;0.68;;;20.90;52.90;;;;;;5109703;28;20066;-49
2022/07/28 11:31:43;;;;;;;4.22;1.23;;;20.70;53.50;;;;;;5109571;28;20035;-48
2022/07/28 11:34:12;;;;;;;1.52;0.63;;;20.60;52.90;;;;;;5109462;28;20037;-47
2022/07/28 11:36:56;;;;;;;3.33;0.60;;;20.60;54.00;;;;;;5091311;28;20085;-48
2022/07/28 11:39:24;;;;;;;3.20;0.70;;;20.70;54.50;;;;;;5109359;28;20027;-47
2022/07/28 11:41:54;;;;;;;3.47;0.82;;;20.70;54.10;;;;;;5109383;28;20097;-49
2022/07/28 11:44:26;;;;;;;2.30;0.88;;;20.90;53.50;;;;;;5109232;28;20032;-51
2022/07/28 11:46:52;;;;;;;2.72;1.00;;;20.80;54.30;;;;;;5109320;28;20031;-49
2022/07/28 11:49:20;;;;;;;3.15;1.08;;;20.90;54.80;;;;;;5109374;28;20107;-52
2022/07/28 11:52:12;;;;;;;2.78;0.70;;;20.90;53.70;;;;;;5109005;28;20015;-50
2022/07/28 11:54:41;;;;;;;1.45;0.60;;;21.20;53.60;;;;;;5109393;28;20020;-49
2022/07/28 11:57:08;;;;;;;4.25;0.75;;;21.10;54.60;;;;;;5090897;28;20119;-49
2022/07/28 11:59:46;;;;;;;3.22;0.93;;;21.40;51.30;;;;;;5109352;28;20071;-47
2022/07/28 12:02:20;;;;;;;1.85;0.63;;;21.20;54.00;;;;;;5110651;28;20072;-51
2022/07/28 12:04:55;;;;;;;5.15;0.75;;;21.10;54.20;;;;;;5078076;28;20147;-46
2022/07/28 12:07:27;;;;;;;2.58;0.60;;;21.10;54.20;;;;;;5112551;28;20028;-47
2022/07/28 12:09:53;;;;;;;7.25;1.30;;;21.20;52.10;;;;;;5112171;28;20030;-47
2022/07/28 12:12:19;;;;;;;2.03;0.75;;;21.10;51.40;;;;;;5094798;28;20019;-48
2022/07/28 12:14:45;;;;;;;2.15;0.55;;;21.40;55.60;;;;;;5112118;28;20365;-46
2022/07/28 12:17:11;;;;;;;3.30;0.65;;;21.50;55.10;;;;;;5112564;28;20148;-47
2022/07/28 12:19:36;;;;;;;2.15;0.70;;;21.40;55.20;;;;;;5112316;28;20035;-46
2022/07/28 12:22:10;;;;;;;2.85;1.00;;;21.50;56.00;;;;;;5112217;28;20026;-51
2022/07/28 12:24:36;;;;;;;3.55;0.98;;;21.60;54.10;;;;;;5111968;28;20105;-49
2022/07/28 12:27:03;;;;;;;2.22;0.55;;;21.40;53.30;;;;;;5112131;28;20023;-47
2022/07/28 12:29:30;;;;;;;4.80;0.88;;;21.30;55.20;;;;;;5112141;28;20073;-47
2022/07/28 12:31:57;;;;;;;2.28;0.65;;;21.00;54.90;;;;;;5112719;28;20031;-48
2022/07/28 12:34:27;;;;;;;6.15;0.85;;;21.00;54.70;;;;;;5112254;28;20112;-47
2022/07/28 12:36:55;;;;;;;3.03;0.90;;;20.90;55.40;;;;;;5112127;28;20031;-49
2022/07/28 12:39:24;;;;;;;4.80;0.63;;;21.20;58.80;;;;;;5094423;28;20039;-49
2022/07/28 12:42:04;;;;;;;4.03;1.10;;;21.30;57.00;;;;;;5094324;28;20108;-48
2022/07/28 12:44:43;;;;;;;3.33;0.73;;;21.30;58.20;;;;;;5112221;28;20035;-47
2022/07/28 12:47:11;;;;;;;2.00;0.55;;;21.50;58.90;;;;;;5111881;28;20400;-47
2022/07/28 12:49:38;;;;;;;4.65;0.77;;;21.40;59.10;;;;;;5093455;28;20460;-46
2022/07/28 12:52:15;;;;;;;4.32;1.00;;;21.00;57.50;;;;;;5111594;28;20089;-47
2022/07/28 12:54:41;;;;;;;2.60;0.50;;;20.90;58.60;;;;;;5111902;28;20506;-46
2022/07/28 12:57:07;;;;;;;6.22;1.13;;;20.60;57.60;;;;;;5111717;28;20020;-46
2022/07/28 12:59:37;;;;;;;2.90;0.90;;;20.40;60.60;;;;;;5093934;28;20047;-46
2022/07/28 13:02:03;;;;;;;2.95;0.52;;;20.60;58.20;;;;;;5111759;28;20027;-45